Manokotak, Alaska
Current Conditions -  °F | °C
As of 12:56 AM on Sunday 23 Nov 2014 (Local Time) from PAMB Reporting Station
Haze Haze  
Wind Chill: 18°   Ceiling: 2300
Heat Index: 29°   Visibility: 4mi
Dew Point: 26°   Wind: 14mph
Humidity: 88%   Direction: 30°NNE
Pressure: 29.15"   Gusts: NA
Location:  58.98°N, 159.06°W
Report Text: PAMB 230956Z AUTO 03012KT 4SM BR OVC023 M02/M03 A2915 RMK AO2 TSNO T10161033 UPB09E46 P0003 SLP874 $
Loading
Personal Weather Stations






























Interactive Weather Map New forecast layout! Learn more

10-Day Weather Forecast

Advertisements
Track Severe Weather on mobile